createdAt,value
2023-02-11T00:01:09.472Z,71.35
2023-02-11T00:03:38.708Z,70.79
2023-02-11T00:06:09.426Z,70.66
2023-02-11T00:08:37.002Z,70.52
2023-02-11T00:11:04.505Z,70.79
2023-02-11T00:13:31.696Z,70.76
2023-02-11T00:15:59.143Z,70.73
2023-02-11T00:18:26.272Z,70.73
2023-02-11T00:20:53.399Z,70.38
2023-02-11T00:23:20.769Z,70.14
2023-02-11T00:25:47.906Z,70.07
2023-02-11T00:28:15.085Z,70.43
2023-02-11T00:30:42.652Z,70.40
2023-02-11T00:33:09.848Z,70.10
2023-02-11T00:35:38.690Z,70.46
2023-02-11T00:38:08.008Z,70.29
2023-02-11T00:40:35.148Z,70.21
2023-02-11T00:43:03.970Z,70.16
2023-02-11T00:45:31.414Z,70.40
2023-02-11T00:47:58.565Z,70.80
2023-02-11T00:50:28.120Z,71.54
2023-02-11T00:52:56.001Z,72.38
2023-02-11T00:55:23.081Z,72.52
2023-02-11T00:57:50.235Z,72.44
2023-02-11T01:00:17.768Z,72.66
2023-02-11T01:02:45.163Z,73.04
2023-02-11T01:05:12.410Z,72.67
2023-02-11T01:07:39.791Z,72.82
2023-02-11T01:10:06.923Z,73.19
2023-02-11T01:12:36.363Z,73.61
2023-02-11T01:15:05.344Z,73.21
2023-02-11T01:17:33.948Z,73.81
2023-02-11T01:20:08.603Z,73.82
2023-02-11T01:22:39.551Z,73.60
2023-02-11T01:25:08.002Z,73.90
2023-02-11T01:27:36.878Z,73.73
2023-02-11T01:30:05.662Z,74.06
2023-02-11T01:32:33.546Z,74.19
2023-02-11T01:35:01.074Z,74.23
2023-02-11T01:37:28.441Z,74.42
2023-02-11T01:39:55.602Z,75.16
2023-02-11T01:42:23.625Z,74.17
2023-02-11T01:44:52.503Z,73.74
2023-02-11T01:47:21.305Z,73.82
2023-02-11T01:50:06.756Z,74.05
2023-02-11T01:52:39.093Z,74.42
2023-02-11T01:55:34.113Z,74.07
2023-02-11T01:58:02.841Z,74.69
2023-02-11T02:00:39.356Z,73.80
2023-02-11T02:03:20.152Z,74.11
2023-02-11T02:06:06.830Z,73.90
2023-02-11T02:08:44.521Z,74.25
2023-02-11T02:11:11.786Z,74.25
2023-02-11T02:13:39.236Z,74.43
2023-02-11T02:16:09.965Z,74.55
2023-02-11T02:18:56.157Z,74.75
2023-02-11T02:21:32.569Z,75.23
2023-02-11T02:24:39.041Z,75.53
2023-02-11T02:27:25.331Z,75.95
2023-02-11T02:30:16.674Z,76.52
2023-02-11T02:33:23.415Z,76.47
2023-02-11T02:36:08.802Z,77.05
2023-02-11T02:38:47.672Z,76.81
2023-02-11T02:41:21.080Z,77.45
2023-02-11T02:43:50.232Z,77.86
2023-02-11T02:46:19.141Z,77.03
2023-02-11T02:48:49.480Z,77.02
2023-02-11T02:51:41.812Z,76.08
2023-02-11T02:54:33.992Z,76.39
2023-02-11T02:57:16.895Z,76.47
2023-02-11T03:00:04.323Z,76.52
2023-02-11T03:02:53.499Z,76.48
2023-02-11T03:05:30.433Z,76.56
2023-02-11T03:08:09.224Z,76.00
2023-02-11T03:10:44.216Z,75.78
2023-02-11T03:13:12.234Z,76.18
2023-02-11T03:15:44.589Z,76.36
2023-02-11T03:18:14.567Z,75.04
2023-02-11T03:20:44.636Z,74.84
2023-02-11T03:23:17.066Z,75.02
2023-02-11T03:25:51.074Z,74.96
2023-02-11T03:28:27.910Z,75.45
2023-02-11T03:31:11.383Z,75.17
2023-02-11T03:33:57.001Z,75.67
2023-02-11T03:36:28.705Z,75.30
2023-02-11T03:38:57.281Z,74.59
2023-02-11T03:41:25.073Z,75.17
2023-02-11T03:43:57.375Z,76.13
2023-02-11T03:46:31.177Z,74.64
2023-02-11T03:49:02.969Z,74.69
2023-02-11T03:51:32.424Z,75.51
2023-02-11T03:54:02.149Z,76.39
2023-02-11T03:56:32.260Z,76.42
2023-02-11T03:58:59.794Z,76.48
2023-02-11T04:01:27.041Z,76.24
2023-02-11T04:03:54.526Z,76.45
2023-02-11T04:06:21.667Z,77.00
2023-02-11T04:08:48.845Z,76.96
2023-02-11T04:11:16.339Z,77.42
2023-02-11T04:13:43.493Z,77.96
2023-02-11T04:16:10.741Z,78.57
2023-02-11T04:18:38.270Z,79.63
2023-02-11T04:21:05.670Z,78.62
2023-02-11T04:23:32.824Z,78.93
2023-02-11T04:26:00.260Z,78.33
2023-02-11T04:28:29.440Z,78.33
2023-02-11T04:30:56.885Z,77.89
2023-02-11T04:33:24.517Z,78.19
2023-02-11T04:35:52.135Z,78.14
2023-02-11T04:38:19.445Z,78.21
2023-02-11T04:40:46.872Z,77.91
2023-02-11T04:43:14.061Z,77.78
2023-02-11T04:45:41.301Z,78.04
2023-02-11T04:48:08.777Z,78.75
2023-02-11T04:50:36.049Z,77.46
2023-02-11T04:53:03.316Z,77.78
2023-02-11T04:55:30.741Z,77.60
2023-02-11T04:57:57.886Z,77.72
2023-02-11T05:00:24.951Z,77.74
2023-02-11T05:02:52.491Z,78.12
2023-02-11T05:05:19.743Z,77.90
2023-02-11T05:07:46.907Z,77.32
2023-02-11T05:10:14.365Z,77.08
2023-02-11T05:12:41.607Z,76.76
2023-02-11T05:15:08.956Z,76.90
2023-02-11T05:17:36.385Z,76.58
2023-02-11T05:20:03.755Z,76.58
2023-02-11T05:22:30.939Z,77.00
2023-02-11T05:24:58.354Z,75.45
2023-02-11T05:27:25.510Z,75.61
2023-02-11T05:29:52.580Z,75.32
2023-02-11T05:32:19.982Z,76.06
2023-02-11T05:34:47.073Z,75.82
2023-02-11T05:37:14.253Z,76.32
2023-02-11T05:39:41.659Z,75.43
2023-02-11T05:42:09.050Z,76.76
2023-02-11T05:44:36.164Z,75.81
2023-02-11T05:47:03.922Z,75.72
2023-02-11T05:49:31.018Z,76.42
2023-02-11T05:51:58.109Z,74.90
2023-02-11T05:54:25.603Z,75.50
2023-02-11T05:56:52.810Z,75.33
2023-02-11T05:59:19.938Z,75.79
2023-02-11T06:01:47.309Z,76.65
2023-02-11T06:04:14.706Z,76.88
2023-02-11T06:06:41.795Z,77.05
2023-02-11T06:09:11.958Z,76.78
2023-02-11T06:11:39.492Z,76.37
2023-02-11T06:14:06.688Z,76.01
2023-02-11T06:16:33.878Z,75.94
2023-02-11T06:19:01.371Z,75.78
2023-02-11T06:21:42.463Z,75.72
2023-02-11T06:24:12.005Z,75.27
2023-02-11T06:26:39.183Z,75.29
2023-02-11T06:29:06.415Z,75.13
2023-02-11T06:31:33.960Z,75.10
2023-02-11T06:34:01.188Z,74.97
2023-02-11T06:36:28.380Z,74.50
2023-02-11T06:38:55.826Z,74.45
2023-02-11T06:41:23.206Z,74.49
2023-02-11T06:43:50.737Z,74.08
2023-02-11T06:46:18.281Z,74.08
2023-02-11T06:48:45.630Z,73.47
2023-02-11T06:51:13.772Z,73.41
2023-02-11T06:53:44.919Z,73.48
2023-02-11T06:56:17.908Z,74.32
2023-02-11T06:58:45.841Z,73.21
2023-02-11T07:01:15.181Z,72.92
2023-02-11T07:03:44.473Z,72.52
2023-02-11T07:06:15.153Z,72.50
2023-02-11T07:08:43.098Z,72.44
2023-02-11T07:11:14.980Z,72.30
2023-02-11T07:13:42.902Z,73.37
2023-02-11T07:16:13.548Z,71.35
2023-02-11T07:18:40.846Z,70.70
2023-02-11T07:21:11.044Z,70.28
2023-02-11T07:23:39.511Z,71.11
2023-02-11T07:26:15.569Z,70.90
2023-02-11T07:28:43.681Z,71.32
2023-02-11T07:31:16.513Z,71.27
2023-02-11T07:33:45.815Z,71.80
2023-02-11T07:36:14.514Z,71.66
2023-02-11T07:38:42.217Z,71.53
2023-02-11T07:41:12.124Z,71.72
2023-02-11T07:43:40.198Z,72.06
2023-02-11T07:46:11.882Z,72.58
2023-02-11T07:48:39.928Z,72.55
2023-02-11T07:51:18.852Z,72.95
2023-02-11T07:53:46.556Z,72.03
2023-02-11T07:56:14.760Z,70.73
2023-02-11T07:58:43.215Z,71.56
2023-02-11T08:01:13.261Z,70.73
2023-02-11T08:03:42.809Z,71.02
2023-02-11T08:06:13.089Z,72.98
2023-02-11T08:08:40.820Z,71.58
2023-02-11T08:11:09.528Z,72.40
2023-02-11T08:13:37.152Z,71.63
2023-02-11T08:16:05.700Z,72.12
2023-02-11T08:18:33.839Z,72.67
2023-02-11T08:21:08.703Z,72.06
2023-02-11T08:23:38.122Z,73.34
2023-02-11T08:26:07.643Z,72.06
2023-02-11T08:28:39.619Z,71.69
2023-02-11T08:31:09.086Z,70.78
2023-02-11T08:33:36.511Z,70.86
2023-02-11T08:36:16.033Z,70.16
2023-02-11T08:38:44.247Z,69.90
2023-02-11T08:41:11.912Z,70.52
2023-02-11T08:43:42.025Z,69.86
2023-02-11T08:46:13.579Z,69.31
2023-02-11T08:48:41.119Z,69.43
2023-02-11T08:51:15.381Z,69.92
2023-02-11T08:53:42.848Z,69.00
2023-02-11T08:56:13.334Z,68.39
2023-02-11T08:58:41.343Z,68.97
2023-02-11T09:01:14.052Z,68.45
2023-02-11T09:03:41.490Z,68.90
2023-02-11T09:06:10.691Z,69.53
2023-02-11T09:08:39.508Z,68.43
2023-02-11T09:11:07.508Z,68.20
2023-02-11T09:13:35.006Z,67.12
2023-02-11T09:16:04.041Z,66.86
2023-02-11T09:18:31.994Z,66.82
2023-02-11T09:21:07.321Z,66.75
2023-02-11T09:23:35.254Z,66.46
2023-02-11T09:26:09.332Z,67.15
2023-02-11T09:28:36.817Z,68.20
2023-02-11T09:31:08.933Z,68.44
2023-02-11T09:33:36.704Z,68.64
2023-02-11T09:36:05.444Z,67.85
2023-02-11T09:38:33.342Z,69.89
2023-02-11T09:41:03.984Z,65.71
2023-02-11T09:43:36.867Z,66.06
2023-02-11T09:46:04.613Z,68.74
2023-02-11T09:48:41.857Z,63.92
2023-02-11T09:51:17.316Z,63.17
2023-02-11T09:53:44.844Z,63.13
2023-02-11T09:56:13.883Z,63.64
2023-02-11T09:58:43.074Z,65.12
2023-02-11T10:01:29.351Z,64.86
2023-02-11T10:04:02.956Z,66.33
2023-02-11T10:06:40.163Z,62.02
2023-02-11T10:09:22.918Z,61.00
2023-02-11T10:12:03.319Z,60.47
2023-02-11T10:15:04.232Z,60.78
2023-02-11T10:18:02.191Z,60.22
2023-02-11T10:20:38.548Z,61.00
2023-02-11T10:23:13.782Z,65.49
2023-02-11T10:25:45.722Z,59.21
2023-02-11T10:28:16.699Z,59.79
2023-02-11T10:30:53.185Z,59.15
2023-02-11T10:33:32.590Z,60.69
2023-02-11T10:36:00.523Z,58.88
2023-02-11T10:38:27.865Z,58.21
2023-02-11T10:40:55.015Z,56.98
2023-02-11T10:43:29.324Z,55.84
2023-02-11T10:45:57.550Z,60.06
2023-02-11T10:48:51.637Z,59.13
2023-02-11T10:51:27.390Z,55.82
2023-02-11T10:54:03.758Z,55.59
2023-02-11T10:56:33.926Z,55.47
2023-02-11T10:59:27.928Z,54.56
2023-02-11T11:02:01.142Z,56.06
2023-02-11T11:04:39.140Z,54.48
2023-02-11T11:07:12.819Z,54.97
2023-02-11T11:10:03.426Z,56.17
2023-02-11T11:12:45.432Z,55.53
2023-02-11T11:15:22.015Z,56.96
2023-02-11T11:17:50.290Z,51.41
2023-02-11T11:20:32.066Z,53.43
2023-02-11T11:23:21.554Z,49.58
2023-02-11T11:26:10.662Z,55.20
2023-02-11T11:28:47.031Z,51.16
2023-02-11T11:31:18.085Z,48.75
2023-02-11T11:33:46.294Z,49.94
2023-02-11T11:36:37.717Z,49.41
2023-02-11T11:39:32.174Z,51.68
2023-02-11T11:42:01.253Z,51.90
2023-02-11T11:44:32.798Z,50.27
2023-02-11T11:47:07.685Z,50.06
2023-02-11T11:49:39.789Z,51.26
2023-02-11T11:52:46.005Z,51.68
2023-02-11T11:55:22.928Z,49.59
2023-02-11T11:57:50.202Z,50.43
2023-02-11T12:00:36.475Z,49.91
2023-02-11T12:03:22.541Z,54.17
2023-02-11T12:05:56.689Z,49.81
2023-02-11T12:08:33.104Z,50.16
2023-02-11T12:11:19.980Z,49.86
2023-02-11T12:14:09.402Z,50.45
2023-02-11T12:16:54.806Z,50.00
2023-02-11T12:19:41.127Z,51.10
2023-02-11T12:22:27.011Z,48.77
2023-02-11T12:25:00.632Z,48.74
2023-02-11T12:27:49.591Z,48.19
2023-02-11T12:30:41.992Z,49.11
2023-02-11T12:33:43.111Z,50.84
2023-02-11T12:36:41.519Z,50.77
2023-02-11T12:39:30.398Z,50.14
2023-02-11T12:42:39.287Z,49.09
2023-02-11T12:45:12.346Z,48.94
2023-02-11T12:47:42.797Z,50.26
2023-02-11T12:50:26.953Z,51.04
2023-02-11T12:53:18.540Z,49.18
2023-02-11T12:55:47.613Z,47.99
2023-02-11T12:58:19.792Z,47.86
2023-02-11T13:00:51.586Z,48.09
2023-02-11T13:03:32.078Z,47.77
2023-02-11T13:06:03.780Z,47.24
2023-02-11T13:08:41.252Z,47.72
2023-02-11T13:11:14.420Z,47.75
2023-02-11T13:13:44.981Z,49.59
2023-02-11T13:16:35.464Z,48.15
2023-02-11T13:19:27.621Z,48.58
2023-02-11T13:22:08.539Z,49.96
2023-02-11T13:24:46.040Z,46.65
2023-02-11T13:27:43.745Z,46.63
2023-02-11T13:30:21.667Z,45.98
2023-02-11T13:32:54.810Z,45.55
2023-02-11T13:35:34.209Z,45.08
2023-02-11T13:38:03.218Z,44.60
2023-02-11T13:40:36.252Z,42.69
2023-02-11T13:43:05.719Z,42.13
2023-02-11T13:45:44.130Z,42.87
2023-02-11T13:48:21.842Z,42.67
2023-02-11T13:50:52.278Z,42.92
2023-02-11T13:53:20.244Z,42.82
2023-02-11T13:55:49.908Z,41.68
2023-02-11T13:58:18.773Z,42.47
2023-02-11T14:00:49.893Z,44.25
2023-02-11T14:03:38.899Z,42.24
2023-02-11T14:06:27.425Z,41.64
2023-02-11T14:09:10.100Z,41.82
2023-02-11T14:11:40.844Z,42.91
2023-02-11T14:14:23.840Z,42.24
2023-02-11T14:17:00.355Z,40.92
2023-02-11T14:19:39.151Z,39.65
2023-02-11T14:22:18.809Z,39.39
2023-02-11T14:25:16.706Z,38.86
2023-02-11T14:27:51.466Z,39.71
2023-02-11T14:30:18.878Z,42.40
2023-02-11T14:33:13.712Z,43.35
2023-02-11T14:35:48.493Z,41.08
2023-02-11T14:38:30.367Z,39.49
2023-02-11T14:41:25.773Z,39.77
2023-02-11T14:43:53.954Z,39.40
2023-02-11T14:46:22.707Z,39.64
2023-02-11T14:48:52.457Z,39.81
2023-02-11T14:51:23.535Z,39.69
2023-02-11T14:53:54.188Z,39.94
2023-02-11T14:56:27.145Z,39.79
2023-02-11T14:58:55.725Z,39.60
2023-02-11T15:01:34.069Z,40.38
2023-02-11T15:04:05.884Z,40.06
2023-02-11T15:06:47.002Z,40.10
2023-02-11T15:09:29.504Z,40.37
2023-02-11T15:11:57.538Z,40.72
2023-02-11T15:14:30.490Z,41.30
2023-02-11T15:17:00.458Z,40.92
2023-02-11T15:19:39.443Z,41.48
2023-02-11T15:22:22.114Z,41.13
2023-02-11T15:24:58.988Z,41.46
2023-02-11T15:27:26.249Z,41.94
2023-02-11T15:29:53.813Z,41.81
2023-02-11T15:32:24.686Z,42.47
2023-02-11T15:34:54.126Z,42.19
2023-02-11T15:37:24.530Z,42.41
2023-02-11T15:39:52.989Z,42.62
2023-02-11T15:42:32.542Z,43.44
2023-02-11T15:45:12.135Z,45.92
2023-02-11T15:47:40.228Z,48.31
2023-02-11T15:50:20.483Z,48.64
2023-02-11T15:52:48.022Z,49.03
2023-02-11T15:55:16.428Z,49.09
2023-02-11T15:57:51.430Z,48.84
2023-02-11T16:00:21.516Z,49.57
2023-02-11T16:02:50.944Z,50.29
2023-02-11T16:05:44.506Z,51.16
2023-02-11T16:08:21.083Z,51.96
2023-02-11T16:11:03.489Z,52.27
2023-02-11T16:13:34.205Z,51.89
2023-02-11T16:16:04.659Z,51.65
2023-02-11T16:18:38.690Z,56.65
2023-02-11T16:21:13.380Z,51.78
2023-02-11T16:23:44.177Z,54.68
2023-02-11T16:26:37.193Z,51.12
2023-02-11T16:29:14.745Z,53.28
2023-02-11T16:31:47.322Z,52.64
2023-02-11T16:34:23.420Z,52.12
2023-02-11T16:36:51.749Z,52.74
2023-02-11T16:39:23.649Z,53.11
2023-02-11T16:41:51.857Z,55.24
2023-02-11T16:44:19.755Z,53.42
2023-02-11T16:46:47.118Z,53.73
2023-02-11T16:49:32.361Z,54.26
2023-02-11T16:52:02.155Z,55.01
2023-02-11T16:54:30.147Z,55.29
2023-02-11T16:56:57.697Z,55.83
2023-02-11T16:59:25.258Z,56.15
2023-02-11T17:01:53.633Z,55.77
2023-02-11T17:04:24.095Z,56.07
2023-02-11T17:06:51.642Z,56.78
2023-02-11T17:09:24.443Z,56.70
2023-02-11T17:11:52.487Z,56.63
2023-02-11T17:14:20.127Z,56.81
2023-02-11T17:16:47.891Z,56.82
2023-02-11T17:19:20.507Z,57.06
2023-02-11T17:21:49.750Z,57.40
2023-02-11T17:24:17.764Z,57.49
2023-02-11T17:26:45.744Z,57.40
2023-02-11T17:29:16.020Z,56.89
2023-02-11T17:31:43.807Z,56.56
2023-02-11T17:34:11.338Z,56.36
2023-02-11T17:36:41.464Z,56.58
2023-02-11T17:39:09.131Z,56.75
2023-02-11T17:41:37.476Z,56.82
2023-02-11T17:44:05.424Z,56.64
2023-02-11T17:46:34.668Z,57.24
2023-02-11T17:49:02.554Z,56.85
2023-02-11T17:51:35.160Z,57.64
2023-02-11T17:54:05.558Z,56.76
2023-02-11T17:56:34.678Z,56.72
2023-02-11T17:59:05.069Z,56.59
2023-02-11T18:01:33.456Z,56.81
2023-02-11T18:04:01.594Z,57.57
2023-02-11T18:06:29.238Z,56.78
2023-02-11T18:08:59.690Z,57.38
2023-02-11T18:11:28.013Z,58.08
2023-02-11T18:13:55.313Z,58.49
2023-02-11T18:16:23.574Z,58.93
2023-02-11T18:18:51.359Z,59.07
2023-02-11T18:21:21.051Z,59.19
2023-02-11T18:23:49.179Z,58.84
2023-02-11T18:26:18.840Z,58.91
2023-02-11T18:28:46.330Z,58.94
2023-02-11T18:31:14.149Z,58.67
2023-02-11T18:33:42.733Z,58.79
2023-02-11T18:36:12.171Z,58.87
2023-02-11T18:38:40.742Z,58.76
2023-02-11T18:41:08.398Z,58.55
2023-02-11T18:43:35.976Z,58.38
2023-02-11T18:46:07.624Z,58.61
2023-02-11T18:48:35.214Z,58.51
2023-02-11T18:51:02.385Z,58.67
2023-02-11T18:53:29.593Z,58.99
2023-02-11T18:55:57.039Z,58.64
2023-02-11T18:58:24.230Z,57.93
2023-02-11T19:00:51.490Z,57.73
2023-02-11T19:03:19.010Z,57.98
2023-02-11T19:05:48.479Z,58.04
2023-02-11T19:08:17.034Z,57.52
2023-02-11T19:10:46.492Z,55.93
2023-02-11T19:13:15.069Z,55.60
2023-02-11T19:15:43.089Z,55.30
2023-02-11T19:18:11.661Z,55.62
2023-02-11T19:20:40.096Z,55.45
2023-02-11T19:23:07.388Z,55.93
2023-02-11T19:25:35.096Z,56.14
2023-02-11T19:28:03.265Z,56.14
2023-02-11T19:30:30.728Z,56.38
2023-02-11T19:32:58.364Z,56.21
2023-02-11T19:35:25.504Z,56.24
2023-02-11T19:37:52.808Z,56.46
2023-02-11T19:40:21.350Z,56.64
2023-02-11T19:42:48.588Z,56.14
2023-02-11T19:45:15.840Z,55.69
2023-02-11T19:47:43.208Z,55.55
2023-02-11T19:50:10.895Z,54.64
2023-02-11T19:52:40.677Z,54.37
2023-02-11T19:55:08.478Z,54.55
2023-02-11T19:57:36.863Z,54.31
2023-02-11T20:00:05.290Z,53.61
2023-02-11T20:02:40.468Z,53.95
2023-02-11T20:05:08.152Z,54.23
2023-02-11T20:07:35.480Z,54.03
2023-02-11T20:10:02.759Z,54.25
2023-02-11T20:12:30.247Z,55.48
2023-02-11T20:14:57.436Z,55.24
2023-02-11T20:17:24.624Z,55.38
2023-02-11T20:19:52.065Z,55.72
2023-02-11T20:22:19.273Z,56.20
2023-02-11T20:24:46.433Z,57.05
2023-02-11T20:27:13.856Z,57.21
2023-02-11T20:29:41.048Z,57.69
2023-02-11T20:32:08.631Z,58.07
2023-02-11T20:34:36.174Z,57.97
2023-02-11T20:37:04.061Z,58.20
2023-02-11T20:39:31.245Z,58.59
2023-02-11T20:41:58.756Z,58.69
2023-02-11T20:44:26.726Z,58.95
2023-02-11T20:46:54.436Z,59.24
2023-02-11T20:49:23.727Z,59.44
2023-02-11T20:51:52.505Z,59.50
2023-02-11T20:54:21.077Z,59.85
2023-02-11T20:56:51.164Z,59.94
2023-02-11T20:59:18.823Z,59.93
2023-02-11T21:01:48.567Z,60.26
2023-02-11T21:04:22.619Z,60.19
2023-02-11T21:06:54.826Z,60.38
2023-02-11T21:09:25.114Z,60.75
2023-02-11T21:11:53.318Z,60.96
2023-02-11T21:14:22.574Z,61.05
2023-02-11T21:16:50.608Z,61.07
2023-02-11T21:19:18.041Z,61.29
2023-02-11T21:21:45.521Z,61.45
2023-02-11T21:24:13.276Z,61.71
2023-02-11T21:26:40.406Z,62.00
2023-02-11T21:29:09.149Z,62.52
2023-02-11T21:31:37.042Z,62.63
2023-02-11T21:34:05.151Z,63.28
2023-02-11T21:36:32.317Z,63.57
2023-02-11T21:39:01.700Z,63.56
2023-02-11T21:41:29.064Z,63.91
2023-02-11T21:43:56.888Z,64.29
2023-02-11T21:46:24.696Z,64.82
2023-02-11T21:48:52.275Z,65.11
2023-02-11T21:51:22.411Z,65.50
2023-02-11T21:54:01.297Z,65.96
2023-02-11T21:56:30.235Z,66.62
2023-02-11T21:58:59.446Z,67.17
2023-02-11T22:01:29.334Z,67.67
2023-02-11T22:03:57.657Z,68.00
2023-02-11T22:06:27.654Z,68.45
2023-02-11T22:08:55.278Z,68.69
2023-02-11T22:11:23.322Z,69.12
2023-02-11T22:13:55.289Z,69.11
2023-02-11T22:16:23.306Z,69.55
2023-02-11T22:18:51.482Z,69.92
2023-02-11T22:21:21.640Z,70.36
2023-02-11T22:23:49.460Z,70.71
2023-02-11T22:26:19.478Z,71.21
2023-02-11T22:28:46.955Z,71.66
2023-02-11T22:31:17.017Z,72.28
2023-02-11T22:36:23.346Z,73.84
2023-02-11T22:38:51.397Z,74.12
2023-02-11T22:41:19.530Z,74.98
2023-02-11T22:43:46.802Z,75.13
2023-02-11T22:46:16.594Z,75.71
2023-02-11T22:48:44.090Z,76.21
2023-02-11T22:51:15.673Z,76.62
2023-02-11T22:53:44.458Z,76.73
2023-02-11T22:56:15.616Z,77.51
2023-02-11T22:58:43.640Z,77.96
2023-02-11T23:01:11.551Z,78.18
2023-02-11T23:03:38.792Z,78.68
2023-02-11T23:06:07.769Z,78.93
2023-02-11T23:08:35.157Z,79.30
2023-02-11T23:11:10.969Z,79.35
2023-02-11T23:13:39.928Z,79.53
2023-02-11T23:16:09.090Z,79.93
2023-02-11T23:18:37.495Z,80.08
2023-02-11T23:21:15.808Z,80.29
2023-02-11T23:23:43.324Z,80.48
2023-02-11T23:26:15.790Z,80.72
2023-02-11T23:28:45.943Z,81.15
2023-02-11T23:31:20.937Z,81.48
2023-02-11T23:33:49.042Z,81.37
2023-02-11T23:36:17.890Z,81.86
2023-02-11T23:38:45.543Z,82.02
2023-02-11T23:41:13.391Z,82.15
2023-02-11T23:43:40.961Z,82.59
2023-02-11T23:46:09.257Z,82.63
2023-02-11T23:48:37.633Z,82.72
2023-02-11T23:51:05.494Z,82.78
2023-02-11T23:53:32.670Z,82.54
2023-02-11T23:55:59.825Z,82.46
2023-02-11T23:58:27.271Z,82.59
